createdAt,value
2018-11-13T00:00:17.926Z,14.17
2018-11-13T00:02:46.579Z,16.30
2018-11-13T00:05:15.219Z,15.30
2018-11-13T00:07:44.560Z,13.80
2018-11-13T00:10:13.617Z,15.10
2018-11-13T00:12:42.647Z,15.20
2018-11-13T00:15:11.850Z,15.10
2018-11-13T00:17:40.639Z,14.63
2018-11-13T00:20:12.846Z,14.70
2018-11-13T00:22:41.751Z,15.40
2018-11-13T00:25:11.962Z,14.50
2018-11-13T00:27:41.141Z,14.47
2018-11-13T00:30:12.874Z,15.73
2018-11-13T00:32:41.907Z,16.90
2018-11-13T00:35:10.731Z,17.33
2018-11-13T00:37:39.331Z,15.13
2018-11-13T00:40:09.112Z,16.80
2018-11-13T00:42:37.708Z,16.60
2018-11-13T00:45:06.604Z,16.07
2018-11-13T00:47:35.260Z,16.53
2018-11-13T00:50:04.116Z,16.70
2018-11-13T00:52:33.179Z,17.90
2018-11-13T00:55:02.346Z,15.97
2018-11-13T00:57:30.593Z,19.60
2018-11-13T00:59:59.264Z,17.03
2018-11-13T01:02:28.114Z,17.70
2018-11-13T01:04:56.736Z,18.57
2018-11-13T01:07:25.425Z,18.40
2018-11-13T01:09:54.097Z,18.33
2018-11-13T01:12:22.718Z,19.57
2018-11-13T01:14:51.335Z,18.93
2018-11-13T01:17:19.973Z,17.00
2018-11-13T01:19:48.600Z,17.20
2018-11-13T01:22:17.264Z,18.97
2018-11-13T01:24:45.883Z,19.10
2018-11-13T01:27:14.731Z,20.67
2018-11-13T01:29:47.586Z,17.93
2018-11-13T01:32:16.224Z,19.47
2018-11-13T01:34:44.884Z,19.00
2018-11-13T01:37:13.560Z,19.57
2018-11-13T01:39:42.188Z,19.80
2018-11-13T01:42:10.821Z,17.80
2018-11-13T01:44:39.487Z,19.00
2018-11-13T01:47:08.153Z,19.27
2018-11-13T01:49:37.195Z,18.90
2018-11-13T01:52:05.962Z,17.53
2018-11-13T01:54:34.823Z,18.90
2018-11-13T01:57:03.779Z,18.83
2018-11-13T01:59:32.634Z,17.17
2018-11-13T02:02:01.281Z,16.83
2018-11-13T02:04:29.961Z,16.90
2018-11-13T02:06:58.600Z,18.40
2018-11-13T02:09:27.228Z,19.63
2018-11-13T02:11:55.875Z,17.50
2018-11-13T02:14:24.479Z,17.30
2018-11-13T02:16:53.100Z,18.43
2018-11-13T02:19:21.700Z,17.23
2018-11-13T02:21:50.337Z,17.17
2018-11-13T02:24:19.070Z,17.13
2018-11-13T02:26:47.656Z,18.37
2018-11-13T02:29:16.444Z,18.27
2018-11-13T02:31:45.134Z,17.40
2018-11-13T02:34:13.812Z,17.30
2018-11-13T02:36:42.467Z,18.77
2018-11-13T02:39:11.557Z,17.43
2018-11-13T02:41:40.540Z,18.97
2018-11-13T02:44:09.436Z,18.40
2018-11-13T02:46:38.428Z,16.17
2018-11-13T02:49:07.048Z,16.83
2018-11-13T02:51:36.027Z,17.30
2018-11-13T02:54:04.840Z,19.80
2018-11-13T02:56:34.218Z,16.77
2018-11-13T02:59:03.124Z,17.80
2018-11-13T03:01:31.771Z,16.97
2018-11-13T03:04:00.428Z,16.07
2018-11-13T03:06:29.095Z,18.30
2018-11-13T03:11:32.708Z,17.60
2018-11-13T03:14:01.349Z,16.50
2018-11-13T03:16:29.970Z,17.27
2018-11-13T03:18:58.642Z,17.30
2018-11-13T03:21:27.306Z,18.23
2018-11-13T03:23:55.963Z,15.60
2018-11-13T03:26:24.865Z,17.40
2018-11-13T03:28:53.484Z,17.30
2018-11-13T03:31:22.202Z,16.33
2018-11-13T03:33:50.737Z,16.80
2018-11-13T03:36:19.383Z,16.93
2018-11-13T03:38:48.032Z,17.37
2018-11-13T03:41:16.648Z,18.03
2018-11-13T03:43:45.260Z,17.60
2018-11-13T03:46:13.872Z,19.03
2018-11-13T03:48:42.681Z,18.20
2018-11-13T03:51:11.312Z,19.17
2018-11-13T03:53:40.008Z,19.90
2018-11-13T03:56:08.643Z,20.23
2018-11-13T03:58:37.300Z,20.17
2018-11-13T04:01:06.012Z,21.30
2018-11-13T04:03:34.686Z,21.23
2018-11-13T04:06:03.328Z,22.40
2018-11-13T04:08:31.944Z,21.73
2018-11-13T04:11:00.575Z,22.70
2018-11-13T04:13:29.183Z,23.10
2018-11-13T04:15:57.895Z,22.50
2018-11-13T04:18:26.537Z,22.60
2018-11-13T04:20:55.241Z,21.30
2018-11-13T04:23:23.907Z,22.33
2018-11-13T04:25:52.504Z,20.93
2018-11-13T04:28:21.184Z,19.90
2018-11-13T04:30:49.967Z,20.77
2018-11-13T04:33:18.549Z,22.70
2018-11-13T04:35:47.182Z,22.53
2018-11-13T04:38:15.799Z,22.27
2018-11-13T04:40:44.460Z,18.63
2018-11-13T04:43:13.123Z,20.43
2018-11-13T04:45:41.759Z,24.37
2018-11-13T04:48:10.409Z,22.50
2018-11-13T04:50:39.064Z,21.40
2018-11-13T04:53:07.680Z,21.70
2018-11-13T04:55:36.344Z,19.87
2018-11-13T04:58:06.470Z,21.50
2018-11-13T05:00:35.237Z,20.70
2018-11-13T05:03:03.915Z,19.40
2018-11-13T05:05:32.637Z,20.63
2018-11-13T05:08:01.284Z,20.53
2018-11-13T05:10:29.907Z,23.03
2018-11-13T05:12:58.538Z,19.97
2018-11-13T05:15:27.195Z,21.40
2018-11-13T05:17:56.019Z,20.27
2018-11-13T05:20:24.739Z,23.30
2018-11-13T05:22:53.676Z,20.07
2018-11-13T05:25:22.377Z,19.83
2018-11-13T05:27:51.136Z,19.50
2018-11-13T05:30:22.039Z,21.00
2018-11-13T05:32:51.986Z,24.00
2018-11-13T05:35:21.508Z,22.60
2018-11-13T05:37:50.261Z,23.00
2018-11-13T05:40:20.527Z,23.70
2018-11-13T05:42:50.338Z,25.53
2018-11-13T05:45:20.573Z,25.27
2018-11-13T05:47:49.201Z,26.67
2018-11-13T05:50:18.628Z,24.27
2018-11-13T05:52:48.783Z,24.20
2018-11-13T05:55:17.619Z,25.27
2018-11-13T05:57:46.379Z,24.93
2018-11-13T06:00:34.100Z,21.93
2018-11-13T06:03:03.763Z,26.03
2018-11-13T06:05:33.258Z,24.80
2018-11-13T06:08:01.912Z,24.40
2018-11-13T06:10:30.652Z,24.77
2018-11-13T06:12:59.280Z,24.30
2018-11-13T06:15:27.934Z,24.23
2018-11-13T06:17:56.609Z,25.40
2018-11-13T06:20:25.240Z,24.80
2018-11-13T06:22:53.914Z,23.70
2018-11-13T06:25:22.561Z,24.03
2018-11-13T06:27:51.196Z,23.20
2018-11-13T06:30:21.344Z,24.70
2018-11-13T06:32:50.408Z,24.80
2018-11-13T06:35:19.051Z,23.57
2018-11-13T06:37:47.736Z,25.63
2018-11-13T06:40:16.368Z,26.13
2018-11-13T06:42:45.208Z,23.90
2018-11-13T06:45:16.988Z,26.10
2018-11-13T06:47:46.395Z,28.43
2018-11-13T06:50:15.049Z,24.80
2018-11-13T06:52:45.486Z,24.17
2018-11-13T06:55:20.284Z,24.10
2018-11-13T06:57:48.915Z,26.10
2018-11-13T07:00:17.639Z,27.03
2018-11-13T07:02:46.324Z,25.67
2018-11-13T07:05:16.319Z,26.00
2018-11-13T07:07:45.356Z,25.30
2018-11-13T07:10:15.336Z,27.17
2018-11-13T07:12:46.303Z,24.70
2018-11-13T07:15:16.640Z,23.67
2018-11-13T07:17:46.645Z,24.90
2018-11-13T07:20:16.176Z,26.87
2018-11-13T07:22:44.852Z,26.10
2018-11-13T07:25:14.890Z,25.13
2018-11-13T07:27:44.882Z,25.30
2018-11-13T07:30:14.747Z,25.60
2018-11-13T07:32:43.533Z,25.00
2018-11-13T07:35:13.519Z,26.80
2018-11-13T07:37:52.263Z,25.47
2018-11-13T07:40:21.932Z,27.27
2018-11-13T07:42:50.860Z,25.63
2018-11-13T07:45:19.535Z,25.13
2018-11-13T07:47:51.516Z,27.37
2018-11-13T07:50:20.015Z,28.83
2018-11-13T07:52:48.688Z,28.10
2018-11-13T07:55:17.636Z,28.30
2018-11-13T07:57:46.423Z,25.60
2018-11-13T08:00:17.234Z,27.40
2018-11-13T08:02:47.489Z,27.10
2018-11-13T08:05:16.144Z,25.67
2018-11-13T08:07:44.816Z,27.33
2018-11-13T08:10:13.780Z,26.50
2018-11-13T08:12:42.455Z,26.70
2018-11-13T08:15:14.588Z,27.30
2018-11-13T08:17:43.783Z,25.87
2018-11-13T08:20:13.688Z,25.63
2018-11-13T08:22:42.781Z,26.70
2018-11-13T08:25:11.854Z,25.80
2018-11-13T08:27:41.144Z,25.90
2018-11-13T08:30:12.149Z,26.27
2018-11-13T08:32:40.795Z,24.00
2018-11-13T08:35:09.532Z,24.73
2018-11-13T08:37:39.087Z,24.50
2018-11-13T08:40:09.667Z,26.47
2018-11-13T08:42:38.313Z,24.30
2018-11-13T08:45:08.051Z,26.73
2018-11-13T08:47:36.828Z,25.60
2018-11-13T08:50:05.893Z,26.20
2018-11-13T08:52:34.500Z,24.30
2018-11-13T08:55:03.279Z,24.93
2018-11-13T08:57:31.941Z,24.73
2018-11-13T09:00:00.564Z,27.00
2018-11-13T09:02:29.268Z,23.10
2018-11-13T09:04:58.032Z,24.10
2018-11-13T09:07:26.587Z,26.13
2018-11-13T09:09:55.213Z,24.50
2018-11-13T09:12:23.982Z,22.23
2018-11-13T09:14:52.733Z,23.70
2018-11-13T09:17:21.491Z,24.03
2018-11-13T09:19:50.306Z,23.20
2018-11-13T09:22:18.912Z,26.27
2018-11-13T09:24:47.604Z,25.73
2018-11-13T09:27:16.276Z,24.13
2018-11-13T09:29:45.071Z,24.10
2018-11-13T09:32:13.713Z,26.07
2018-11-13T09:34:42.498Z,25.10
2018-11-13T09:37:11.152Z,27.97
2018-11-13T09:39:39.927Z,27.13
2018-11-13T09:42:08.631Z,26.40
2018-11-13T09:44:37.269Z,27.43
2018-11-13T09:47:06.273Z,25.43
2018-11-13T09:49:34.910Z,24.77
2018-11-13T09:52:03.562Z,28.27
2018-11-13T09:54:32.183Z,27.37
2018-11-13T09:57:00.992Z,28.50
2018-11-13T09:59:29.627Z,25.47
2018-11-13T10:01:58.506Z,25.10
2018-11-13T10:04:28.018Z,24.30
2018-11-13T10:06:56.184Z,27.67
2018-11-13T10:09:24.982Z,25.70
2018-11-13T10:11:54.676Z,27.80
2018-11-13T10:14:23.488Z,25.70
2018-11-13T10:16:52.221Z,25.60
2018-11-13T10:19:21.468Z,27.93
2018-11-13T10:21:50.163Z,26.07
2018-11-13T10:24:18.970Z,27.50
2018-11-13T10:26:47.588Z,26.80
2018-11-13T10:29:16.235Z,25.57
2018-11-13T10:31:44.861Z,25.30
2018-11-13T10:34:13.519Z,26.07
2018-11-13T10:36:42.237Z,28.10
2018-11-13T10:39:11.308Z,26.90
2018-11-13T10:41:40.000Z,27.73
2018-11-13T10:44:08.656Z,24.47
2018-11-13T10:46:37.600Z,25.23
2018-11-13T10:49:06.406Z,25.33
2018-11-13T10:51:35.003Z,25.87
2018-11-13T10:54:03.739Z,24.77
2018-11-13T10:56:32.464Z,26.13
2018-11-13T10:59:01.072Z,27.30
2018-11-13T11:01:35.188Z,24.33
2018-11-13T11:04:09.311Z,23.57
2018-11-13T11:06:37.968Z,24.20
2018-11-13T11:09:08.706Z,22.90
2018-11-13T11:11:37.568Z,25.27
2018-11-13T11:14:06.301Z,24.70
2018-11-13T11:16:34.889Z,22.17
2018-11-13T11:19:03.647Z,23.73
2018-11-13T11:21:32.302Z,23.67
2018-11-13T11:24:00.974Z,26.23
2018-11-13T11:26:29.737Z,23.80
2018-11-13T11:28:58.308Z,26.10
2018-11-13T11:31:26.940Z,24.90
2018-11-13T11:33:55.572Z,25.37
2018-11-13T11:36:24.215Z,25.90
2018-11-13T11:38:53.079Z,23.97
2018-11-13T11:41:21.630Z,23.10
2018-11-13T11:43:50.265Z,22.07
2018-11-13T11:46:18.961Z,21.70
2018-11-13T11:48:47.666Z,23.40
2018-11-13T11:51:16.289Z,20.43
2018-11-13T11:53:45.066Z,21.60
2018-11-13T11:56:13.634Z,21.80
2018-11-13T11:58:42.309Z,22.00
2018-11-13T12:01:10.964Z,24.17
2018-11-13T12:03:39.603Z,22.33
2018-11-13T12:06:08.257Z,22.80
2018-11-13T12:08:36.917Z,21.00
2018-11-13T12:11:05.640Z,21.33
2018-11-13T12:13:34.295Z,20.77
2018-11-13T12:16:03.103Z,20.17
2018-11-13T12:18:32.589Z,22.20
2018-11-13T12:21:01.326Z,21.43
2018-11-13T12:23:29.917Z,19.93
2018-11-13T12:25:58.675Z,25.53
2018-11-13T12:28:27.203Z,20.93
2018-11-13T12:30:55.877Z,22.07
2018-11-13T12:33:24.525Z,24.67
2018-11-13T12:35:53.203Z,26.00
2018-11-13T12:38:21.841Z,26.97
2018-11-13T12:40:50.542Z,26.43
2018-11-13T12:43:19.178Z,28.10
2018-11-13T12:45:47.810Z,30.60
2018-11-13T12:48:16.544Z,31.97
2018-11-13T12:50:50.506Z,28.60
2018-11-13T12:53:19.255Z,25.33
2018-11-13T12:55:47.951Z,25.27
2018-11-13T12:58:16.660Z,23.50
2018-11-13T13:00:45.288Z,22.03
2018-11-13T13:03:13.919Z,19.80
2018-11-13T13:05:42.556Z,20.03
2018-11-13T13:08:11.210Z,19.43
2018-11-13T13:10:39.963Z,20.43
2018-11-13T13:13:08.600Z,17.50
2018-11-13T13:15:37.344Z,19.70
2018-11-13T13:18:05.994Z,19.90
2018-11-13T13:20:34.661Z,18.40
2018-11-13T13:23:03.297Z,20.00
2018-11-13T13:25:31.905Z,18.30
2018-11-13T13:28:00.644Z,17.77
2018-11-13T13:30:29.358Z,17.23
2018-11-13T13:32:58.058Z,18.83
2018-11-13T13:35:46.775Z,19.40
2018-11-13T13:38:15.420Z,17.50
2018-11-13T13:40:44.963Z,19.50
2018-11-13T13:43:14.433Z,17.50
2018-11-13T13:45:43.811Z,17.60
2018-11-13T13:48:12.503Z,18.90
2018-11-13T13:50:41.120Z,18.73
2018-11-13T13:53:10.832Z,17.60
2018-11-13T13:55:39.631Z,17.87
2018-11-13T13:58:08.296Z,18.20
2018-11-13T14:00:36.966Z,17.80
2018-11-13T14:03:06.888Z,18.97
2018-11-13T14:05:35.513Z,19.63
2018-11-13T14:08:04.715Z,18.87
2018-11-13T14:10:33.500Z,19.13
2018-11-13T14:13:02.164Z,19.40
2018-11-13T14:15:30.872Z,18.90
2018-11-13T14:17:59.912Z,19.30
2018-11-13T14:20:28.547Z,20.30
2018-11-13T14:22:57.243Z,18.77
2018-11-13T14:25:25.856Z,17.87
2018-11-13T14:27:54.474Z,20.10
2018-11-13T14:30:27.464Z,19.10
2018-11-13T14:32:57.511Z,19.10
2018-11-13T14:35:26.179Z,19.63
2018-11-13T14:37:54.813Z,17.97
2018-11-13T14:40:26.796Z,18.90
2018-11-13T14:42:55.486Z,16.30
2018-11-13T14:45:24.900Z,17.20
2018-11-13T14:47:54.070Z,18.27
2018-11-13T14:50:24.945Z,16.77
2018-11-13T14:52:53.963Z,20.10
2018-11-13T14:55:28.805Z,23.27
2018-11-13T14:57:58.064Z,28.73
2018-11-13T15:00:27.800Z,21.83
2018-11-13T15:02:57.161Z,22.23
2018-11-13T15:05:26.513Z,22.47
2018-11-13T15:07:59.550Z,24.73
2018-11-13T15:10:33.984Z,23.43
2018-11-13T15:13:02.673Z,23.20
2018-11-13T15:15:31.323Z,19.60
2018-11-13T15:18:00.068Z,22.37
2018-11-13T15:20:28.711Z,24.70
2018-11-13T15:22:57.413Z,20.10
2018-11-13T15:25:26.170Z,13.70
2018-11-13T15:27:54.992Z,14.80
2018-11-13T15:30:26.572Z,11.40
2018-11-13T15:32:56.739Z,12.97
2018-11-13T15:35:25.892Z,12.37
2018-11-13T15:37:54.565Z,15.20
2018-11-13T15:40:24.609Z,12.63
2018-11-13T15:42:53.267Z,13.20
2018-11-13T15:45:22.138Z,13.20
2018-11-13T15:47:51.692Z,9.63
2018-11-13T15:50:24.425Z,11.40
2018-11-13T15:52:54.394Z,11.13
2018-11-13T15:55:23.771Z,11.07
2018-11-13T15:57:52.689Z,10.90
2018-11-13T16:00:24.753Z,12.80
2018-11-13T16:02:54.208Z,12.27
2018-11-13T16:05:40.062Z,13.80
2018-11-13T16:08:09.583Z,12.07
2018-11-13T16:10:39.509Z,13.20
2018-11-13T16:13:08.338Z,13.73
2018-11-13T16:15:37.251Z,13.00
2018-11-13T16:18:10.218Z,12.20
2018-11-13T16:20:38.938Z,13.50
2018-11-13T16:23:07.783Z,12.67
2018-11-13T16:25:36.462Z,13.77
2018-11-13T16:28:05.112Z,11.70
2018-11-13T16:30:35.236Z,10.70
2018-11-13T16:33:04.024Z,11.60
2018-11-13T16:35:33.075Z,11.33
2018-11-13T16:38:03.891Z,9.00
2018-11-13T16:40:33.219Z,10.40
2018-11-13T16:43:02.701Z,9.33
2018-11-13T16:45:32.362Z,7.77
2018-11-13T16:48:01.785Z,7.20
2018-11-13T16:50:34.217Z,6.10
2018-11-13T16:53:03.221Z,6.23
2018-11-13T16:55:37.623Z,6.20
2018-11-13T16:58:07.605Z,5.97
2018-11-13T17:00:36.328Z,5.87
2018-11-13T17:03:05.261Z,5.60
2018-11-13T17:05:34.654Z,6.40
2018-11-13T17:08:03.187Z,6.70
2018-11-13T17:10:32.354Z,6.17
2018-11-13T17:13:01.687Z,5.50
2018-11-13T17:15:31.482Z,6.50
2018-11-13T17:18:01.397Z,5.80
2018-11-13T17:20:31.153Z,5.90
2018-11-13T17:23:00.591Z,5.20
2018-11-13T17:25:31.757Z,6.37
2018-11-13T17:28:00.565Z,5.97
2018-11-13T17:30:31.461Z,6.80
2018-11-13T17:33:01.290Z,6.97
2018-11-13T17:35:30.610Z,7.10
2018-11-13T17:38:00.224Z,6.80
2018-11-13T17:40:30.266Z,6.80
2018-11-13T17:43:01.058Z,7.50
2018-11-13T17:45:31.024Z,7.60
2018-11-13T17:48:00.013Z,7.90
2018-11-13T17:50:31.369Z,8.43
2018-11-13T17:53:00.134Z,8.70
2018-11-13T17:55:28.723Z,9.10
2018-11-13T17:57:59.145Z,9.07
2018-11-13T18:00:36.072Z,10.80
2018-11-13T18:03:05.968Z,8.43
2018-11-13T18:05:35.230Z,9.00
2018-11-13T18:08:04.605Z,13.40
2018-11-13T18:10:34.077Z,8.90
2018-11-13T18:13:02.720Z,8.97
2018-11-13T18:15:31.483Z,9.33
2018-11-13T18:18:00.333Z,9.17
2018-11-13T18:20:33.177Z,11.27
2018-11-13T18:23:01.836Z,10.03
2018-11-13T18:25:30.575Z,11.70
2018-11-13T18:28:00.354Z,10.77
2018-11-13T18:30:30.183Z,11.90
2018-11-13T18:32:59.599Z,11.40
2018-11-13T18:35:29.640Z,11.73
2018-11-13T18:37:59.213Z,11.33
2018-11-13T18:40:28.059Z,12.30
2018-11-13T18:42:58.093Z,12.00
2018-11-13T18:45:29.063Z,11.37
2018-11-13T18:47:57.756Z,12.07
2018-11-13T18:50:29.562Z,12.30
2018-11-13T18:52:58.300Z,12.27
2018-11-13T18:55:27.701Z,13.80
2018-11-13T18:57:56.884Z,11.30
2018-11-13T19:00:33.404Z,11.63
2018-11-13T19:03:03.036Z,10.73
2018-11-13T19:05:31.720Z,12.17
2018-11-13T19:08:00.609Z,12.17
2018-11-13T19:10:31.313Z,11.93
2018-11-13T19:13:01.536Z,13.10
2018-11-13T19:15:31.677Z,11.57
2018-11-13T19:18:00.543Z,12.13
2018-11-13T19:20:29.344Z,10.60
2018-11-13T19:22:57.969Z,12.50
2018-11-13T19:25:27.908Z,11.10
2018-11-13T19:27:57.403Z,13.17
2018-11-13T19:30:26.210Z,11.77
2018-11-13T19:32:55.660Z,11.50
2018-11-13T19:35:24.697Z,12.20
2018-11-13T19:37:53.257Z,12.03
2018-11-13T19:40:24.504Z,11.43
2018-11-13T19:42:54.741Z,13.10
2018-11-13T19:45:23.674Z,13.63
2018-11-13T19:47:52.664Z,13.90
2018-11-13T19:50:28.510Z,13.00
2018-11-13T19:52:57.783Z,12.47
2018-11-13T19:55:27.091Z,12.97
2018-11-13T19:57:57.538Z,13.07
2018-11-13T20:00:28.313Z,13.70
2018-11-13T20:02:58.386Z,12.87
2018-11-13T20:05:28.288Z,12.50
2018-11-13T20:07:57.143Z,13.77
2018-11-13T20:10:27.127Z,12.97
2018-11-13T20:12:57.056Z,13.03
2018-11-13T20:15:26.534Z,13.17
2018-11-13T20:17:55.149Z,13.40
2018-11-13T20:20:25.341Z,13.27
2018-11-13T20:22:54.587Z,13.50
2018-11-13T20:25:24.640Z,14.20
2018-11-13T20:27:53.351Z,12.50
2018-11-13T20:30:27.545Z,13.10
2018-11-13T20:32:56.233Z,14.67
2018-11-13T20:35:24.920Z,12.50
2018-11-13T20:37:54.864Z,13.30
2018-11-13T20:40:24.874Z,11.67
2018-11-13T20:42:54.918Z,11.40
2018-11-13T20:45:23.671Z,11.50
2018-11-13T20:47:52.373Z,11.80
2018-11-13T20:50:23.009Z,10.67
2018-11-13T20:52:51.670Z,10.60
2018-11-13T20:55:20.357Z,10.17
2018-11-13T20:57:49.097Z,9.57
2018-11-13T21:00:19.247Z,9.77
2018-11-13T21:02:48.253Z,8.43
2018-11-13T21:05:17.162Z,10.03
2018-11-13T21:07:46.251Z,9.67
2018-11-13T21:10:18.617Z,9.70
2018-11-13T21:12:47.277Z,10.13
2018-11-13T21:15:17.265Z,9.50
2018-11-13T21:17:46.924Z,9.30
2018-11-13T21:20:16.798Z,11.30
2018-11-13T21:22:45.481Z,10.13
2018-11-13T21:25:15.528Z,10.27
2018-11-13T21:27:45.815Z,10.23
2018-11-13T21:30:16.455Z,10.93
2018-11-13T21:32:45.922Z,9.77
2018-11-13T21:35:14.907Z,9.93
2018-11-13T21:37:44.917Z,10.20
2018-11-13T21:40:15.856Z,10.67
2018-11-13T21:42:45.277Z,9.53
2018-11-13T21:45:14.671Z,10.23
2018-11-13T21:47:43.669Z,10.27
2018-11-13T21:50:13.927Z,9.80
2018-11-13T21:52:43.164Z,10.90
2018-11-13T21:55:15.402Z,9.47
2018-11-13T21:57:44.204Z,10.03
2018-11-13T22:00:16.977Z,8.33
2018-11-13T22:02:47.928Z,9.20
2018-11-13T22:05:16.853Z,7.70
2018-11-13T22:07:46.114Z,7.97
2018-11-13T22:10:14.849Z,6.60
2018-11-13T22:12:43.803Z,8.27
2018-11-13T22:15:13.565Z,7.17
2018-11-13T22:17:42.533Z,6.10
2018-11-13T22:20:12.602Z,6.27
2018-11-13T22:22:41.264Z,6.43
2018-11-13T22:25:13.532Z,5.47
2018-11-13T22:27:42.762Z,4.90
2018-11-13T22:30:13.568Z,5.10
2018-11-13T22:32:42.797Z,5.87
2018-11-13T22:35:12.788Z,4.50
2018-11-13T22:37:41.412Z,4.70
2018-11-13T22:40:12.743Z,4.20
2018-11-13T22:42:41.408Z,3.83
2018-11-13T22:45:12.871Z,3.80
2018-11-13T22:47:41.743Z,3.00
2018-11-13T22:50:14.180Z,3.40
2018-11-13T22:52:43.621Z,3.40
2018-11-13T22:55:13.018Z,4.07
2018-11-13T22:57:42.681Z,3.90
2018-11-13T23:00:17.914Z,3.23
2018-11-13T23:02:46.936Z,3.50
2018-11-13T23:05:15.557Z,3.83
2018-11-13T23:07:44.220Z,4.13
2018-11-13T23:10:13.856Z,6.40
2018-11-13T23:12:43.183Z,4.30
2018-11-13T23:15:20.139Z,6.17
2018-11-13T23:17:48.740Z,3.30
2018-11-13T23:20:18.720Z,6.77
2018-11-13T23:22:47.375Z,4.10
2018-11-13T23:25:19.106Z,3.30
2018-11-13T23:27:49.001Z,3.53
2018-11-13T23:30:24.090Z,4.60
2018-11-13T23:32:53.175Z,3.60
2018-11-13T23:35:22.001Z,3.63
2018-11-13T23:37:51.951Z,4.23
2018-11-13T23:40:22.197Z,3.37
2018-11-13T23:42:51.152Z,4.37
2018-11-13T23:45:20.946Z,3.50
2018-11-13T23:47:49.999Z,2.80
2018-11-13T23:50:18.912Z,3.80
2018-11-13T23:52:48.661Z,3.77
2018-11-13T23:55:17.691Z,4.73
2018-11-13T23:57:46.930Z,3.60
